createdAt,value
2017-06-26T00:00:11.110Z,82.70
2017-06-26T00:02:39.314Z,82.50
2017-06-26T00:05:08.319Z,82.10
2017-06-26T00:07:37.258Z,81.30
2017-06-26T00:10:05.439Z,81.30
2017-06-26T00:12:33.655Z,81.70
2017-06-26T00:15:01.994Z,81.40
2017-06-26T00:17:30.198Z,81.60
2017-06-26T00:19:58.496Z,81.80
2017-06-26T00:22:26.707Z,82.00
2017-06-26T00:24:54.914Z,81.90
2017-06-26T00:27:23.282Z,81.60
2017-06-26T00:29:51.471Z,80.80
2017-06-26T00:32:19.687Z,80.50
2017-06-26T00:34:47.904Z,80.70
2017-06-26T00:37:16.102Z,80.50
2017-06-26T00:39:44.311Z,80.10
2017-06-26T00:42:12.525Z,79.80
2017-06-26T00:44:40.726Z,79.60
2017-06-26T00:47:08.957Z,79.90
2017-06-26T00:49:37.159Z,80.40
2017-06-26T00:52:05.590Z,80.10
2017-06-26T00:54:34.524Z,80.00
2017-06-26T00:57:02.731Z,80.00
2017-06-26T00:59:30.934Z,79.80
2017-06-26T01:01:59.887Z,80.10
2017-06-26T01:04:28.081Z,80.10
2017-06-26T01:06:56.271Z,81.20
2017-06-26T01:09:25.207Z,80.50
2017-06-26T01:11:53.509Z,80.40
2017-06-26T01:14:21.863Z,81.20
2017-06-26T01:16:50.078Z,81.80
2017-06-26T01:19:18.281Z,82.20
2017-06-26T01:21:47.235Z,83.70
2017-06-26T01:24:15.424Z,83.70
2017-06-26T01:26:43.669Z,84.50
2017-06-26T01:29:11.983Z,84.60
2017-06-26T01:31:40.943Z,85.70
2017-06-26T01:34:09.172Z,85.90
2017-06-26T01:36:37.349Z,87.10
2017-06-26T01:39:05.522Z,86.20
2017-06-26T01:41:33.966Z,86.50
2017-06-26T01:44:02.454Z,86.20
2017-06-26T01:46:30.642Z,86.60
2017-06-26T01:48:58.921Z,87.00
2017-06-26T01:51:27.860Z,87.30
2017-06-26T01:53:56.136Z,87.20
2017-06-26T01:56:24.353Z,87.30
2017-06-26T01:58:52.627Z,87.30
2017-06-26T02:01:20.939Z,87.30
2017-06-26T02:03:49.149Z,87.30
2017-06-26T02:06:17.316Z,86.90
2017-06-26T02:08:45.507Z,87.70
2017-06-26T02:11:13.708Z,87.40
2017-06-26T02:13:41.895Z,87.50
2017-06-26T02:16:10.908Z,87.50
2017-06-26T02:18:39.149Z,87.50
2017-06-26T02:21:07.394Z,87.50
2017-06-26T02:23:35.577Z,87.90
2017-06-26T02:26:03.795Z,87.70
2017-06-26T02:28:32.751Z,87.80
2017-06-26T02:31:00.935Z,87.80
2017-06-26T02:33:29.149Z,87.70
2017-06-26T02:35:58.112Z,88.10
2017-06-26T02:38:26.290Z,88.10
2017-06-26T02:40:54.497Z,88.40
2017-06-26T02:43:22.687Z,88.40
2017-06-26T02:45:50.880Z,88.50
2017-06-26T02:48:19.103Z,88.30
2017-06-26T02:50:48.073Z,88.70
2017-06-26T02:53:16.253Z,88.20
2017-06-26T02:55:44.474Z,88.30
2017-06-26T02:58:12.644Z,88.30
2017-06-26T03:00:40.816Z,88.20
2017-06-26T03:03:09.035Z,87.90
2017-06-26T03:05:37.226Z,88.10
2017-06-26T03:08:05.405Z,88.10
2017-06-26T03:10:33.609Z,88.40
2017-06-26T03:13:01.802Z,88.40
2017-06-26T03:15:30.010Z,88.20
2017-06-26T03:17:58.215Z,88.30
2017-06-26T03:20:26.410Z,88.20
2017-06-26T03:22:55.353Z,88.90
2017-06-26T03:25:23.576Z,88.70
2017-06-26T03:27:52.553Z,88.50
2017-06-26T03:30:20.751Z,88.50
2017-06-26T03:32:49.737Z,88.70
2017-06-26T03:35:17.929Z,88.70
2017-06-26T03:37:46.128Z,88.60
2017-06-26T03:40:14.347Z,88.40
2017-06-26T03:42:42.558Z,88.40
2017-06-26T03:45:10.734Z,88.10
2017-06-26T03:47:38.955Z,88.70
2017-06-26T03:50:07.161Z,89.00
2017-06-26T03:52:36.109Z,89.30
2017-06-26T03:55:04.354Z,89.30
2017-06-26T03:57:32.521Z,89.50
2017-06-26T04:00:00.697Z,89.40
2017-06-26T04:02:28.904Z,89.30
2017-06-26T04:04:57.095Z,89.30
2017-06-26T04:07:25.287Z,89.00
2017-06-26T04:09:53.500Z,89.70
2017-06-26T04:12:21.712Z,89.20
2017-06-26T04:14:49.930Z,88.90
2017-06-26T04:17:18.916Z,89.00
2017-06-26T04:19:47.129Z,88.90
2017-06-26T04:22:15.409Z,88.30
2017-06-26T04:24:43.932Z,88.30
2017-06-26T04:27:12.146Z,88.10
2017-06-26T04:29:40.320Z,87.60
2017-06-26T04:32:09.300Z,87.60
2017-06-26T04:34:38.244Z,87.90
2017-06-26T04:37:06.444Z,87.10
2017-06-26T04:39:34.710Z,87.00
2017-06-26T04:42:02.889Z,86.50
2017-06-26T04:44:31.060Z,85.20
2017-06-26T04:46:59.283Z,85.00
2017-06-26T04:49:28.241Z,84.80
2017-06-26T04:51:56.453Z,84.80
2017-06-26T04:54:24.998Z,84.30
2017-06-26T04:56:53.199Z,84.00
2017-06-26T04:59:22.155Z,83.00
2017-06-26T05:01:50.380Z,83.00
2017-06-26T05:04:18.564Z,82.50
2017-06-26T05:06:46.756Z,81.80
2017-06-26T05:09:14.957Z,81.50
2017-06-26T05:11:43.170Z,80.30
2017-06-26T05:14:12.108Z,79.30
2017-06-26T05:16:40.315Z,79.30
2017-06-26T05:19:08.521Z,79.40
2017-06-26T05:21:36.710Z,78.80
2017-06-26T05:24:04.919Z,77.80
2017-06-26T05:26:33.096Z,76.80
2017-06-26T05:29:01.279Z,76.40
2017-06-26T05:31:29.480Z,76.50
2017-06-26T05:33:58.437Z,74.50
2017-06-26T05:36:26.631Z,74.30
2017-06-26T05:38:54.883Z,73.90
2017-06-26T05:41:23.053Z,74.40
2017-06-26T05:43:51.253Z,73.70
2017-06-26T05:46:19.484Z,72.70
2017-06-26T05:48:47.671Z,73.40
2017-06-26T05:51:15.865Z,72.60
2017-06-26T05:53:44.101Z,70.50
2017-06-26T05:56:12.295Z,70.30
2017-06-26T05:58:40.506Z,70.10
2017-06-26T06:01:09.201Z,69.40
2017-06-26T06:03:37.410Z,68.60
2017-06-26T06:06:05.607Z,68.60
2017-06-26T06:08:33.813Z,68.50
2017-06-26T06:11:02.009Z,67.00
2017-06-26T06:13:30.192Z,67.20
2017-06-26T06:15:59.280Z,63.30
2017-06-26T06:18:27.448Z,63.30
2017-06-26T06:20:55.631Z,63.90
2017-06-26T06:23:23.862Z,63.30
2017-06-26T06:25:52.069Z,61.90
2017-06-26T06:28:20.255Z,60.90
2017-06-26T06:30:49.194Z,60.30
2017-06-26T06:33:17.416Z,59.70
2017-06-26T06:35:45.580Z,60.70
2017-06-26T06:38:13.822Z,60.50
2017-06-26T06:40:42.038Z,58.70
2017-06-26T06:43:11.037Z,58.60
2017-06-26T06:45:39.349Z,58.60
2017-06-26T06:48:07.561Z,59.10
2017-06-26T06:50:35.733Z,57.80
2017-06-26T06:53:03.960Z,57.70
2017-06-26T06:55:32.183Z,58.40
2017-06-26T06:58:00.363Z,58.50
2017-06-26T07:00:28.575Z,58.30
2017-06-26T07:02:56.764Z,57.80
2017-06-26T07:05:25.731Z,56.20
2017-06-26T07:07:53.972Z,56.20
2017-06-26T07:10:23.019Z,56.00
2017-06-26T07:12:51.232Z,55.60
2017-06-26T07:15:19.451Z,54.10
2017-06-26T07:17:47.635Z,51.70
2017-06-26T07:20:15.844Z,50.90
2017-06-26T07:22:44.103Z,50.80
2017-06-26T07:25:12.326Z,50.30
2017-06-26T07:27:40.530Z,50.20
2017-06-26T07:30:08.778Z,50.80
2017-06-26T07:32:36.950Z,50.00
2017-06-26T07:35:05.136Z,49.80
2017-06-26T07:37:33.373Z,49.10
2017-06-26T07:40:01.559Z,50.10
2017-06-26T07:42:29.745Z,50.10
2017-06-26T07:44:57.945Z,48.30
2017-06-26T07:47:26.146Z,47.70
2017-06-26T07:49:55.166Z,49.10
2017-06-26T07:52:23.379Z,48.30
2017-06-26T07:54:51.563Z,47.40
2017-06-26T07:57:19.947Z,45.80
2017-06-26T07:59:48.632Z,46.80
2017-06-26T08:02:16.890Z,46.20
2017-06-26T08:04:45.083Z,45.70
2017-06-26T08:07:13.323Z,45.50
2017-06-26T08:09:41.508Z,44.50
2017-06-26T08:12:09.773Z,43.20
2017-06-26T08:14:37.981Z,43.80
2017-06-26T08:17:06.246Z,45.40
2017-06-26T08:19:34.425Z,47.90
2017-06-26T08:22:02.658Z,47.50
2017-06-26T08:24:30.846Z,46.40
2017-06-26T08:26:59.018Z,44.60
2017-06-26T08:29:27.240Z,41.00
2017-06-26T08:31:55.443Z,40.40
2017-06-26T08:34:24.401Z,36.50
2017-06-26T08:36:52.605Z,36.40
2017-06-26T08:39:21.550Z,34.50
2017-06-26T08:41:49.780Z,34.40
2017-06-26T08:44:18.004Z,33.90
2017-06-26T08:46:46.206Z,31.50
2017-06-26T08:49:14.376Z,29.40
2017-06-26T08:51:42.612Z,29.30
2017-06-26T08:54:10.802Z,30.30
2017-06-26T08:56:39.010Z,30.30
2017-06-26T08:59:07.252Z,32.40
2017-06-26T09:01:35.501Z,35.20
2017-06-26T09:04:03.674Z,38.00
2017-06-26T09:06:31.895Z,35.30
2017-06-26T09:09:00.084Z,32.10
2017-06-26T09:11:28.270Z,29.00
2017-06-26T09:13:56.490Z,27.80
2017-06-26T09:16:24.689Z,25.00
2017-06-26T09:18:52.873Z,24.00
2017-06-26T09:21:21.077Z,23.40
2017-06-26T09:23:50.052Z,26.60
2017-06-26T09:26:18.243Z,26.40
2017-06-26T09:28:46.471Z,29.90
2017-06-26T09:31:14.640Z,31.70
2017-06-26T09:33:42.816Z,30.60
2017-06-26T09:36:11.028Z,30.40
2017-06-26T09:38:39.200Z,31.30
2017-06-26T09:41:07.393Z,34.30
2017-06-26T09:43:35.604Z,37.40
2017-06-26T09:46:03.799Z,38.90
2017-06-26T09:48:31.972Z,36.00
2017-06-26T09:51:00.246Z,31.70
2017-06-26T09:53:28.458Z,28.30
2017-06-26T09:55:56.669Z,26.40
2017-06-26T09:58:24.905Z,25.20
2017-06-26T10:00:53.078Z,24.40
2017-06-26T10:03:21.259Z,25.60
2017-06-26T10:05:49.471Z,26.70
2017-06-26T10:08:18.430Z,26.30
2017-06-26T10:10:46.637Z,26.30
2017-06-26T10:13:14.881Z,26.40
2017-06-26T10:15:43.062Z,27.80
2017-06-26T10:18:11.255Z,29.40
2017-06-26T10:20:39.478Z,30.20
2017-06-26T10:23:07.671Z,30.50
2017-06-26T10:25:35.875Z,29.40
2017-06-26T10:28:04.859Z,24.30
2017-06-26T10:30:33.070Z,24.30
2017-06-26T10:33:01.240Z,24.00
2017-06-26T10:35:29.478Z,22.90
2017-06-26T10:37:57.654Z,23.70
2017-06-26T10:40:25.861Z,23.70
2017-06-26T10:42:54.079Z,24.60
2017-06-26T10:45:22.267Z,26.60
2017-06-26T10:47:50.469Z,26.90
2017-06-26T10:50:19.464Z,23.70
2017-06-26T10:52:47.703Z,23.70
2017-06-26T10:55:15.909Z,22.60
2017-06-26T10:57:44.926Z,20.30
2017-06-26T11:00:13.112Z,20.30
2017-06-26T11:02:41.306Z,20.90
2017-06-26T11:05:09.500Z,21.10
2017-06-26T11:07:37.662Z,22.80
2017-06-26T11:10:05.847Z,24.80
2017-06-26T11:12:34.075Z,27.20
2017-06-26T11:15:02.268Z,29.00
2017-06-26T11:17:30.455Z,30.30
2017-06-26T11:19:58.673Z,32.50
2017-06-26T11:22:26.895Z,33.50
2017-06-26T11:24:55.073Z,33.20
2017-06-26T11:27:23.300Z,33.60
2017-06-26T11:29:52.347Z,30.90
2017-06-26T11:32:20.548Z,30.90
2017-06-26T11:34:48.795Z,30.00
2017-06-26T11:37:16.974Z,30.80
2017-06-26T11:39:45.143Z,32.70
2017-06-26T11:42:13.351Z,33.70
2017-06-26T11:44:41.545Z,35.30
2017-06-26T11:47:09.724Z,35.90
2017-06-26T11:49:37.978Z,34.40
2017-06-26T11:52:06.163Z,34.40
2017-06-26T11:54:34.368Z,35.90
2017-06-26T11:57:03.355Z,37.70
2017-06-26T11:59:31.563Z,37.60
2017-06-26T12:01:59.762Z,37.80
2017-06-26T12:04:27.999Z,36.10
2017-06-26T12:06:56.210Z,35.60
2017-06-26T12:09:24.407Z,35.20
2017-06-26T12:11:52.627Z,34.30
2017-06-26T12:14:20.815Z,34.80
2017-06-26T12:16:49.005Z,33.40
2017-06-26T12:19:17.224Z,32.90
2017-06-26T12:21:46.197Z,32.90
2017-06-26T12:24:14.364Z,32.90
2017-06-26T12:26:42.583Z,31.60
2017-06-26T12:29:11.531Z,33.40
2017-06-26T12:31:39.711Z,33.40
2017-06-26T12:34:07.909Z,34.30
2017-06-26T12:36:36.849Z,36.60
2017-06-26T12:39:05.036Z,36.20
2017-06-26T12:41:33.233Z,34.60
2017-06-26T12:44:01.430Z,34.80
2017-06-26T12:46:29.624Z,34.00
2017-06-26T12:48:57.843Z,33.80
2017-06-26T12:51:26.050Z,35.40
2017-06-26T12:53:54.224Z,34.30
2017-06-26T12:56:22.450Z,34.10
2017-06-26T12:58:50.638Z,35.10
2017-06-26T13:01:18.819Z,36.50
2017-06-26T13:03:47.024Z,33.90
2017-06-26T13:06:15.230Z,36.50
2017-06-26T13:08:43.407Z,35.70
2017-06-26T13:11:11.800Z,36.00
2017-06-26T13:13:40.138Z,36.10
2017-06-26T13:16:08.330Z,36.10
2017-06-26T13:18:37.334Z,35.40
2017-06-26T13:21:05.542Z,36.10
2017-06-26T13:23:33.715Z,36.00
2017-06-26T13:26:01.956Z,36.90
2017-06-26T13:28:30.143Z,35.80
2017-06-26T13:30:58.319Z,36.00
2017-06-26T13:33:26.533Z,36.80
2017-06-26T13:35:54.717Z,36.60
2017-06-26T13:38:22.933Z,36.20
2017-06-26T13:40:51.235Z,37.90
2017-06-26T13:43:19.591Z,36.60
2017-06-26T13:45:47.784Z,36.30
2017-06-26T13:48:15.988Z,36.80
2017-06-26T13:50:44.322Z,36.50
2017-06-26T13:53:12.503Z,37.60
2017-06-26T13:55:40.718Z,38.30
2017-06-26T13:58:08.902Z,37.00
2017-06-26T14:00:37.076Z,37.50
2017-06-26T14:03:05.308Z,37.40
2017-06-26T14:05:33.510Z,38.00
2017-06-26T14:08:01.699Z,37.40
2017-06-26T14:10:29.955Z,37.60
2017-06-26T14:12:58.147Z,36.80
2017-06-26T14:15:26.350Z,37.10
2017-06-26T14:17:55.324Z,37.80
2017-06-26T14:20:23.542Z,37.80
2017-06-26T14:22:51.782Z,39.40
2017-06-26T14:25:20.012Z,38.10
2017-06-26T14:27:48.207Z,38.30
2017-06-26T14:30:16.394Z,38.30
2017-06-26T14:32:44.611Z,38.30
2017-06-26T14:35:13.550Z,39.90
2017-06-26T14:37:41.754Z,39.90
2017-06-26T14:40:09.998Z,39.70
2017-06-26T14:42:38.172Z,40.10
2017-06-26T14:45:06.354Z,40.40
2017-06-26T14:47:34.576Z,41.00
2017-06-26T14:50:03.519Z,38.30
2017-06-26T14:52:31.687Z,38.30
2017-06-26T14:54:59.889Z,39.70
2017-06-26T14:57:28.105Z,39.40
2017-06-26T14:59:56.277Z,40.10
2017-06-26T15:02:25.259Z,39.20
2017-06-26T15:04:54.206Z,40.20
2017-06-26T15:07:22.374Z,40.20
2017-06-26T15:09:50.605Z,39.70
2017-06-26T15:12:19.572Z,40.50
2017-06-26T15:14:47.755Z,40.50
2017-06-26T15:17:15.983Z,39.90
2017-06-26T15:19:44.165Z,38.60
2017-06-26T15:22:12.346Z,39.20
2017-06-26T15:24:40.540Z,39.00
2017-06-26T15:27:08.749Z,38.30
2017-06-26T15:29:37.723Z,38.90
2017-06-26T15:32:05.947Z,38.90
2017-06-26T15:34:34.132Z,39.70
2017-06-26T15:37:02.324Z,39.60
2017-06-26T15:39:30.539Z,39.60
2017-06-26T15:41:58.746Z,38.90
2017-06-26T15:44:26.938Z,39.60
2017-06-26T15:46:55.149Z,40.60
2017-06-26T15:49:23.349Z,39.30
2017-06-26T15:51:51.535Z,39.20
2017-06-26T15:54:19.733Z,39.80
2017-06-26T15:56:47.915Z,38.80
2017-06-26T15:59:16.110Z,39.00
2017-06-26T16:01:44.350Z,39.50
2017-06-26T16:04:12.549Z,40.20
2017-06-26T16:06:40.742Z,41.40
2017-06-26T16:09:08.967Z,42.30
2017-06-26T16:11:37.138Z,43.30
2017-06-26T16:14:05.318Z,43.20
2017-06-26T16:16:33.554Z,43.30
2017-06-26T16:19:01.757Z,42.80
2017-06-26T16:21:29.943Z,42.70
2017-06-26T16:23:58.162Z,42.30
2017-06-26T16:26:26.339Z,42.70
2017-06-26T16:28:54.504Z,41.80
2017-06-26T16:31:22.715Z,41.40
2017-06-26T16:33:51.669Z,40.70
2017-06-26T16:36:19.852Z,40.70
2017-06-26T16:38:48.067Z,41.00
2017-06-26T16:41:17.012Z,41.00
2017-06-26T16:43:45.199Z,41.00
2017-06-26T16:46:13.424Z,41.30
2017-06-26T16:48:41.611Z,40.70
2017-06-26T16:51:09.815Z,41.60
2017-06-26T16:53:38.035Z,42.00
2017-06-26T16:56:06.237Z,42.40
2017-06-26T16:58:34.412Z,41.80
2017-06-26T17:01:02.621Z,42.80
2017-06-26T17:03:30.815Z,42.50
2017-06-26T17:05:59.003Z,43.10
2017-06-26T17:08:27.999Z,43.90
2017-06-26T17:10:56.963Z,44.30
2017-06-26T17:13:25.163Z,44.20
2017-06-26T17:15:54.156Z,44.90
2017-06-26T17:18:23.125Z,45.10
2017-06-26T17:20:51.331Z,45.10
2017-06-26T17:23:20.341Z,44.50
2017-06-26T17:25:48.602Z,44.40
2017-06-26T17:28:17.559Z,43.50
2017-06-26T17:30:45.806Z,43.40
2017-06-26T17:33:14.679Z,43.80
2017-06-26T17:35:42.886Z,43.90
2017-06-26T17:38:11.120Z,44.40
2017-06-26T17:40:40.098Z,44.80
2017-06-26T17:43:09.069Z,45.10
2017-06-26T17:45:37.291Z,45.10
2017-06-26T17:48:05.480Z,45.30
2017-06-26T17:50:33.652Z,45.60
2017-06-26T17:53:01.882Z,45.90
2017-06-26T17:55:30.075Z,45.50
2017-06-26T17:57:59.037Z,45.10
2017-06-26T18:00:27.326Z,45.10
2017-06-26T18:02:55.519Z,45.90
2017-06-26T18:05:24.516Z,45.80
2017-06-26T18:07:52.813Z,45.80
2017-06-26T18:10:21.003Z,45.40
2017-06-26T18:12:49.972Z,46.60
2017-06-26T18:15:18.223Z,46.50
2017-06-26T18:17:46.442Z,47.00
2017-06-26T18:20:14.663Z,47.00
2017-06-26T18:22:42.927Z,46.70
2017-06-26T18:25:11.133Z,46.70
2017-06-26T18:27:39.328Z,46.90
2017-06-26T18:30:07.555Z,47.40
2017-06-26T18:32:35.765Z,48.10
2017-06-26T18:35:04.048Z,48.50
2017-06-26T18:37:32.274Z,48.50
2017-06-26T18:40:00.509Z,48.10
2017-06-26T18:42:29.558Z,48.00
2017-06-26T18:44:57.834Z,48.00
2017-06-26T18:47:26.035Z,48.90
2017-06-26T18:49:54.246Z,49.60
2017-06-26T18:52:22.479Z,50.20
2017-06-26T18:54:50.649Z,50.50
2017-06-26T18:57:18.817Z,51.10
2017-06-26T18:59:47.020Z,51.30
2017-06-26T19:02:15.189Z,51.00
2017-06-26T19:04:43.404Z,51.00
2017-06-26T19:07:11.651Z,50.90
2017-06-26T19:09:39.900Z,51.20
2017-06-26T19:12:08.088Z,51.70
2017-06-26T19:14:36.312Z,51.50
2017-06-26T19:17:04.476Z,51.60
2017-06-26T19:19:32.682Z,52.10
2017-06-26T19:22:00.904Z,52.20
2017-06-26T19:24:29.087Z,52.80
2017-06-26T19:26:57.274Z,52.60
2017-06-26T19:29:25.495Z,52.20
2017-06-26T19:31:53.681Z,52.50
2017-06-26T19:34:22.659Z,52.40
2017-06-26T19:36:50.879Z,52.10
2017-06-26T19:39:19.070Z,52.00
2017-06-26T19:41:47.239Z,52.20
2017-06-26T19:44:15.467Z,52.50
2017-06-26T19:46:43.641Z,53.10
2017-06-26T19:49:11.815Z,53.60
2017-06-26T19:51:40.039Z,53.20
2017-06-26T19:54:08.232Z,53.20
2017-06-26T19:56:36.434Z,53.60
2017-06-26T19:59:04.667Z,53.80
2017-06-26T20:01:33.631Z,54.70
2017-06-26T20:04:01.815Z,54.10
2017-06-26T20:06:30.049Z,54.30
2017-06-26T20:08:58.262Z,54.40
2017-06-26T20:11:26.452Z,54.80
2017-06-26T20:13:55.457Z,55.80
2017-06-26T20:16:24.399Z,56.00
2017-06-26T20:18:52.821Z,55.90
2017-06-26T20:21:21.071Z,56.00
2017-06-26T20:23:49.263Z,56.20
2017-06-26T20:26:17.453Z,56.40
2017-06-26T20:28:45.702Z,56.80
2017-06-26T20:31:13.905Z,56.60
2017-06-26T20:33:42.882Z,57.20
2017-06-26T20:36:11.120Z,57.20
2017-06-26T20:38:39.323Z,57.30
2017-06-26T20:41:07.510Z,57.10
2017-06-26T20:43:35.734Z,57.40
2017-06-26T20:46:03.905Z,57.30
2017-06-26T20:48:32.092Z,57.60
2017-06-26T20:51:00.340Z,58.00
2017-06-26T20:53:29.292Z,57.90
2017-06-26T20:55:57.498Z,57.90
2017-06-26T20:58:26.506Z,58.20
2017-06-26T21:00:54.711Z,58.10
2017-06-26T21:03:22.900Z,58.40
2017-06-26T21:05:51.137Z,58.60
2017-06-26T21:08:19.319Z,58.80
2017-06-26T21:10:47.488Z,58.70
2017-06-26T21:13:15.816Z,58.60
2017-06-26T21:15:44.009Z,58.70
2017-06-26T21:18:12.200Z,58.80
2017-06-26T21:20:41.180Z,59.10
2017-06-26T21:23:09.354Z,59.00
2017-06-26T21:25:37.540Z,59.10
2017-06-26T21:28:05.751Z,58.90
2017-06-26T21:30:33.921Z,59.10
2017-06-26T21:33:02.089Z,59.30
2017-06-26T21:35:30.327Z,59.50
2017-06-26T21:37:58.518Z,59.60
2017-06-26T21:40:27.485Z,59.70
2017-06-26T21:42:55.708Z,59.70
2017-06-26T21:45:23.916Z,59.80
2017-06-26T21:47:52.100Z,59.60
2017-06-26T21:50:20.323Z,59.70
2017-06-26T21:52:48.536Z,59.80
2017-06-26T21:55:16.735Z,60.20
2017-06-26T21:57:44.970Z,60.10
2017-06-26T22:00:13.181Z,60.60
2017-06-26T22:02:41.405Z,60.50
2017-06-26T22:05:09.639Z,60.50
2017-06-26T22:07:37.837Z,60.40
2017-06-26T22:10:06.803Z,61.10
2017-06-26T22:12:35.009Z,61.00
2017-06-26T22:15:03.971Z,60.80
2017-06-26T22:17:32.179Z,60.70
2017-06-26T22:20:02.212Z,61.60
2017-06-26T22:22:30.561Z,61.60
2017-06-26T22:24:58.795Z,61.90
2017-06-26T22:27:26.992Z,61.80
2017-06-26T22:29:55.164Z,61.70
2017-06-26T22:32:23.378Z,61.50
2017-06-26T22:34:52.398Z,61.10
2017-06-26T22:37:20.618Z,61.00
2017-06-26T22:39:48.791Z,60.90
2017-06-26T22:42:17.007Z,60.80
2017-06-26T22:44:45.212Z,61.10
2017-06-26T22:47:13.412Z,61.50
2017-06-26T22:49:41.659Z,61.90
2017-06-26T22:52:09.854Z,61.70
2017-06-26T22:54:38.056Z,62.10
2017-06-26T22:57:06.288Z,61.50
2017-06-26T22:59:34.479Z,61.40
2017-06-26T23:02:02.701Z,61.50
2017-06-26T23:04:31.684Z,61.80
2017-06-26T23:07:00.651Z,62.30
2017-06-26T23:09:28.824Z,61.80
2017-06-26T23:11:57.058Z,62.00
2017-06-26T23:14:25.232Z,61.80
2017-06-26T23:16:53.414Z,62.40
2017-06-26T23:19:21.634Z,62.70
2017-06-26T23:21:49.801Z,62.70
2017-06-26T23:24:17.980Z,62.90
2017-06-26T23:26:46.204Z,63.10
2017-06-26T23:29:14.384Z,64.10
2017-06-26T23:31:42.568Z,63.60
2017-06-26T23:34:10.831Z,63.60
2017-06-26T23:36:39.027Z,63.80
2017-06-26T23:39:07.230Z,64.10
2017-06-26T23:41:35.467Z,64.40
2017-06-26T23:44:03.647Z,65.00
2017-06-26T23:46:31.851Z,65.30
2017-06-26T23:49:00.096Z,65.40
2017-06-26T23:51:28.288Z,65.70
2017-06-26T23:53:56.476Z,65.70
2017-06-26T23:56:24.695Z,65.80
2017-06-26T23:58:52.885Z,65.60
